Time;durP1;ratioP1;P1;durP2;ratioP2;P2;SDS_P1;SDS_P2;PMS_P1;PMS_P2;Temp;Humidity;BMP_temperature;BMP_pressure;BME280_temperature;BME280_humidity;BME280_pressure;Samples;Min_cycle;Max_cycle;Signal;HPM_P1;HPM_P2
2022/06/14 00:01:36;;;;;;;4.68;3.65;;;;;;;;;;5076332;28;20090;-75
2022/06/14 00:04:02;;;;;;;4.03;3.33;;;;;;;;;;5056755;28;20158;-76
2022/06/14 00:06:30;;;;;;;4.70;3.47;;;;;;;;;;5075780;28;20044;-75
2022/06/14 00:08:57;;;;;;;6.13;3.53;;;;;;;;;;5075541;28;20052;-75
2022/06/14 00:11:25;;;;;;;4.43;3.15;;;;;;;;;;5075417;28;20044;-75
2022/06/14 00:13:52;;;;;;;6.85;3.75;;;;;;;;;;5075669;28;20055;-75
2022/06/14 00:16:18;;;;;;;5.85;3.70;;;;;;;;;;5075555;28;20047;-75
2022/06/14 00:18:45;;;;;;;4.95;3.15;;;;;;;;;;5075343;28;20495;-75
2022/06/14 00:21:11;;;;;;;5.65;3.75;;;;;;;;;;5075421;28;20044;-75
2022/06/14 00:23:37;;;;;;;4.50;3.50;;;;;;;;;;5075010;28;20503;-75
2022/06/14 00:26:03;;;;;;;5.72;3.60;;;;;;;;;;5075062;28;20497;-76
2022/06/14 00:28:31;;;;;;;5.07;3.72;;;;;;;;;;5075248;28;20040;-75
2022/06/14 00:30:59;;;;;;;3.80;3.42;;;;;;;;;;5075014;28;20048;-75
2022/06/14 00:33:25;;;;;;;5.93;3.53;;;;;;;;;;5075117;28;20045;-75
2022/06/14 00:36:02;;;;;;;4.80;3.28;;;;;;;;;;5075060;28;20485;-75
2022/06/14 00:38:29;;;;;;;7.22;3.50;;;;;;;;;;5075167;28;20047;-75
2022/06/14 00:40:56;;;;;;;6.85;3.85;;;;;;;;;;5075028;28;20048;-76
2022/06/14 00:43:23;;;;;;;4.53;3.33;;;;;;;;;;5074940;28;20522;-75
2022/06/14 00:45:52;;;;;;;8.02;3.45;;;;;;;;;;5074720;28;20044;-76
2022/06/14 00:48:21;;;;;;;6.85;3.65;;;;;;;;;;5074890;28;20040;-75
2022/06/14 00:51:05;;;;;;;4.70;3.38;;;;;;;;;;5075337;28;20048;-75
2022/06/14 00:53:46;;;;;;;7.90;3.60;;;;;;;;;;5075143;28;20044;-75
2022/06/14 00:56:15;;;;;;;4.72;3.42;;;;;;;;;;5075470;28;20048;-75
2022/06/14 00:58:44;;;;;;;4.97;3.80;;;;;;;;;;5074479;28;20387;-75
2022/06/14 01:01:14;;;;;;;5.07;4.13;;;;;;;;;;5074726;28;20051;-76
2022/06/14 01:03:43;;;;;;;6.28;4.30;;;;;;;;;;5074580;28;20053;-75
2022/06/14 01:06:09;;;;;;;4.03;3.63;;;;;;;;;;5074725;28;20040;-76
2022/06/14 01:08:41;;;;;;;5.47;3.55;;;;;;;;;;5074601;28;20044;-75
2022/06/14 01:11:09;;;;;;;4.07;3.67;;;;;;;;;;5074373;28;20051;-76
2022/06/14 01:13:36;;;;;;;6.28;3.67;;;;;;;;;;5074775;28;20533;-75
2022/06/14 01:16:02;;;;;;;4.00;3.60;;;;;;;;;;5073759;28;20040;-75
2022/06/14 01:18:29;;;;;;;5.90;4.22;;;;;;;;;;5074414;28;20139;-75
2022/06/14 01:20:55;;;;;;;5.18;4.07;;;;;;;;;;5074500;28;20182;-76
2022/06/14 01:23:22;;;;;;;4.78;3.72;;;;;;;;;;5074773;28;20076;-75
2022/06/14 01:25:51;;;;;;;3.92;3.63;;;;;;;;;;5074648;28;20496;-75
2022/06/14 01:28:19;;;;;;;4.95;3.95;;;;;;;;;;5074179;28;20044;-75
2022/06/14 01:30:47;;;;;;;5.53;3.88;;;;;;;;;;5074661;28;20047;-75
2022/06/14 01:33:22;;;;;;;4.20;3.80;;;;;;;;;;5074611;28;20044;-75
2022/06/14 01:35:51;;;;;;;5.90;4.00;;;;;;;;;;5074104;28;20119;-75
2022/06/14 01:38:17;;;;;;;4.20;3.75;;;;;;;;;;5056272;28;20430;-75
2022/06/14 01:40:59;;;;;;;4.80;3.75;;;;;;;;;;5074182;28;20101;-75
2022/06/14 01:43:44;;;;;;;4.18;3.78;;;;;;;;;;5074577;28;20078;-75
2022/06/14 01:46:10;;;;;;;4.55;3.83;;;;;;;;;;5074030;28;20479;-75
2022/06/14 01:48:54;;;;;;;4.28;3.80;;;;;;;;;;5074250;28;20033;-75
2022/06/14 01:51:51;;;;;;;5.65;3.83;;;;;;;;;;5074155;28;20097;-75
2022/06/14 01:54:29;;;;;;;4.88;3.80;;;;;;;;;;5074131;28;20086;-75
2022/06/14 01:56:55;;;;;;;5.72;4.20;;;;;;;;;;5073866;28;20095;-75
2022/06/14 01:59:50;;;;;;;5.10;3.63;;;;;;;;;;5074129;28;20051;-76
2022/06/14 02:02:21;;;;;;;4.10;3.70;;;;;;;;;;5001972;28;20509;-76
2022/06/14 02:04:55;;;;;;;6.43;3.97;;;;;;;;;;5073515;28;20140;-76
2022/06/14 02:07:26;;;;;;;6.38;3.70;;;;;;;;;;5073828;28;20040;-75
2022/06/14 02:09:59;;;;;;;4.78;3.50;;;;;;;;;;5073759;28;20174;-75
2022/06/14 02:12:45;;;;;;;6.75;3.80;;;;;;;;;;5074203;28;20044;-76
2022/06/14 02:15:27;;;;;;;7.95;3.90;;;;;;;;;;5073542;28;20483;-75
2022/06/14 02:18:14;;;;;;;7.05;4.05;;;;;;;;;;5073845;28;20037;-75
2022/06/14 02:20:57;;;;;;;6.68;3.97;;;;;;;;;;5074183;28;20052;-75
2022/06/14 02:23:24;;;;;;;4.50;4.10;;;;;;;;;;5073706;28;20045;-75
2022/06/14 02:25:53;;;;;;;4.53;3.95;;;;;;;;;;5074763;28;20047;-75
2022/06/14 02:28:25;;;;;;;5.78;4.30;;;;;;;;;;5077598;28;20039;-75
2022/06/14 02:30:55;;;;;;;4.03;3.63;;;;;;;;;;5077364;28;20514;-75
2022/06/14 02:33:30;;;;;;;6.00;3.90;;;;;;;;;;5077743;28;20549;-75
2022/06/14 02:36:22;;;;;;;4.70;3.83;;;;;;;;;;5077204;28;20090;-75
2022/06/14 02:38:59;;;;;;;4.95;3.83;;;;;;;;;;5046116;28;20051;-75
2022/06/14 02:41:33;;;;;;;8.68;4.43;;;;;;;;;;5077590;28;20052;-75
2022/06/14 02:43:59;;;;;;;6.85;4.45;;;;;;;;;;5077543;28;20557;-75
2022/06/14 02:46:35;;;;;;;3.95;3.40;;;;;;;;;;5077310;28;20047;-75
2022/06/14 02:49:17;;;;;;;4.28;3.70;;;;;;;;;;5077182;28;20499;-75
2022/06/14 02:51:43;;;;;;;5.53;3.85;;;;;;;;;;5077552;28;20505;-75
2022/06/14 02:54:15;;;;;;;4.18;3.78;;;;;;;;;;5077339;28;20045;-75
2022/06/14 02:56:41;;;;;;;5.10;3.97;;;;;;;;;;5077368;28;20471;-75
2022/06/14 02:59:15;;;;;;;6.18;4.10;;;;;;;;;;5077089;28;20048;-75
2022/06/14 03:02:13;;;;;;;5.18;4.00;;;;;;;;;;5077097;28;20051;-75
2022/06/14 03:04:44;;;;;;;5.88;3.88;;;;;;;;;;5032153;28;20052;-75
2022/06/14 03:07:30;;;;;;;4.53;4.07;;;;;;;;;;5077369;28;20041;-75
2022/06/14 03:09:57;;;;;;;4.82;3.85;;;;;;;;;;5076818;28;20359;-75
2022/06/14 03:12:33;;;;;;;4.55;4.13;;;;;;;;;;5077121;28;20040;-75
2022/06/14 03:15:31;;;;;;;4.60;4.20;;;18.20;99.90;;;;;;5077162;28;20475;-75
2022/06/14 03:18:18;;;;;;;5.95;3.90;;;17.90;99.90;;;;;;5077113;28;20029;-75
2022/06/14 03:20:51;;;;;;;4.80;4.25;;;17.60;99.90;;;;;;5077372;28;20131;-75
2022/06/14 03:23:56;;;;;;;4.68;4.10;;;17.40;99.90;;;;;;5076964;28;20090;-75
2022/06/14 03:26:26;;;;;;;5.15;3.80;;;;;;;;;;5076657;28;20033;-75
2022/06/14 03:28:58;;;;;;;5.63;4.25;;;;;;;;;;5076788;28;20044;-75
2022/06/14 03:31:32;;;;;;;7.45;4.45;;;;;;;;;;5077073;28;20094;-75
2022/06/14 03:34:07;;;;;;;4.80;4.25;;;;;;;;;;5058363;28;20067;-75
2022/06/14 03:36:34;;;;;;;5.25;4.00;;;;;;;;;;5076427;28;20074;-75
2022/06/14 03:39:04;;;;;;;4.72;4.07;;;;;;;;;;5058149;28;20470;-75
2022/06/14 03:41:32;;;;;;;8.20;4.53;;;;;;;;;;5076220;28;20072;-75
2022/06/14 03:43:59;;;;;;;4.40;3.95;;;;;;;;;;5076429;28;20044;-75
2022/06/14 03:46:36;;;;;;;4.43;3.95;;;;;;;;;;5076765;28;20036;-75
2022/06/14 03:49:06;;;;;;;4.63;4.00;;;;;;;;;;5076472;28;20040;-75
2022/06/14 03:51:51;;;;;;;5.75;4.03;;;;;;;;;;5076386;28;20494;-75
2022/06/14 03:54:40;;;;;;;6.22;3.85;;;;;;;;;;5076587;28;20498;-75
2022/06/14 03:57:14;;;;;;;5.93;4.30;;;;;;;;;;5076335;28;20048;-75
2022/06/14 03:59:40;;;;;;;7.57;4.13;;;;;;;;;;5058448;28;20436;-75
2022/06/14 04:02:10;;;;;;;7.00;4.47;;;;;;;;;;5058476;28;20053;-74
2022/06/14 04:04:36;;;;;;;5.43;4.50;;;;;;;;;;5076071;28;20082;-73
2022/06/14 04:07:11;;;;;;;4.60;4.03;;;;;;;;;;5075796;28;20072;-75
2022/06/14 04:09:45;;;;;;;5.30;4.20;;;;;;;;;;5076131;28;20051;-75
2022/06/14 04:12:11;;;;;;;5.22;4.45;;;;;;;;;;5076302;28;20521;-75
2022/06/14 04:14:44;;;;;;;4.95;4.38;;;;;;;;;;5075720;28;20047;-75
2022/06/14 04:17:10;;;;;;;5.55;4.40;;;;;;;;;;5076236;28;20044;-74
2022/06/14 04:19:40;;;;;;;4.32;3.63;;;;;;;;;;5075691;28;20059;-75
2022/06/14 04:22:17;;;;;;;6.82;4.82;;;;;;;;;;5076110;28;20558;-75
2022/06/14 04:24:58;;;;;;;6.68;3.83;;;;;;;;;;5075536;28;20049;-74
2022/06/14 04:27:30;;;;;;;7.10;4.88;;;;;;;;;;5075930;28;20051;-75
2022/06/14 04:30:15;;;;;;;6.25;4.00;;;;;;;;;;5075669;28;20032;-75
2022/06/14 04:32:56;;;;;;;6.20;4.30;;;;;;;;;;5075600;28;20040;-75
2022/06/14 04:35:28;;;;;;;8.20;4.35;;;;;;;;;;5075231;28;20110;-75
2022/06/14 04:37:55;;;;;;;4.65;3.97;;;;;;;;;;5057257;28;20097;-75
2022/06/14 04:40:27;;;;;;;4.38;3.92;;;;;;;;;;5075366;28;20033;-74
2022/06/14 04:42:56;;;;;;;4.70;3.78;;;;;;;;;;5057413;28;20072;-75
2022/06/14 04:45:31;;;;;;;4.50;4.10;;;;;;;;;;5074933;28;20364;-75
2022/06/14 04:48:02;;;;;;;5.70;4.03;;;;;;;;;;5075471;28;20109;-75
2022/06/14 04:50:32;;;;;;;4.13;3.72;;;;;;;;;;5056992;28;20604;-75
2022/06/14 04:53:02;;;;;;;6.15;4.07;;;;;;;;;;5075238;28;20045;-75
2022/06/14 04:55:48;;;;;;;3.88;3.53;;;;;;;;;;5075782;28;20032;-75
2022/06/14 04:58:25;;;;;;;4.50;3.78;;;;;;;;;;5043245;28;20036;-75
2022/06/14 05:01:02;;;;;;;6.90;4.35;;;;;;;;;;5075409;28;20048;-75
2022/06/14 05:03:31;;;;;;;6.65;4.13;;;;;;;;;;5074725;28;20155;-74
2022/06/14 05:05:59;;;;;;;4.75;4.28;;;;;;;;;;5074536;28;20033;-74
2022/06/14 05:08:37;;;;;;;6.47;3.95;;;;;;;;;;5074478;28;20033;-74
2022/06/14 05:11:17;;;;;;;5.88;3.85;;;;;;;;;;5069155;28;20136;-75
2022/06/14 05:13:58;;;;;;;4.05;3.40;;;;;;;;;;5057055;28;20047;-75
2022/06/14 05:16:29;;;;;;;6.47;3.72;;;;;;;;;;5059926;28;20036;-75
2022/06/14 05:19:08;;;;;;;4.63;3.10;;;;;;;;;;5063526;28;20064;-75
2022/06/14 05:21:46;;;;;;;6.20;3.30;;;;;;;;;;5049096;28;20070;-75
2022/06/14 05:24:13;;;;;;;4.88;3.08;;;;;;;;;;5064157;28;20125;-74
2022/06/14 05:26:43;;;;;;;5.57;2.97;;;;;;;;;;5057289;28;20167;-74
2022/06/14 05:29:18;;;;;;;3.50;2.78;;;;;;;;;;5069851;28;20047;-74
2022/06/14 05:32:04;;;;;;;3.45;3.10;;;;;;;;;;5073465;28;20059;-74
2022/06/14 05:34:37;;;;;;;3.83;2.80;;;;;;;;;;5041861;28;20047;-75
2022/06/14 05:37:06;;;;;;;3.10;2.80;;;;;;;;;;5073573;28;20122;-80
2022/06/14 05:39:37;;;;;;;3.95;3.10;;;;;;;;;;5073617;28;20124;-76
2022/06/14 05:42:12;;;;;;;4.35;3.05;;;;;;;;;;5074021;28;20055;-75
2022/06/14 05:44:42;;;;;;;2.97;2.70;;;;;;;;;;5056217;28;20036;-75
2022/06/14 05:47:12;;;;;;;4.53;2.50;;;;;;;;;;5074028;28;20040;-76
2022/06/14 05:49:40;;;;;;;3.22;2.60;;;;;;;;;;5071583;28;20041;-76
2022/06/14 05:52:10;;;;;;;3.10;2.80;;;;;;;;;;5043639;28;20137;-76
2022/06/14 05:54:55;;;;;;;4.65;3.17;;;;;;;;;;5071664;28;20051;-76
2022/06/14 05:57:41;;;;;;;7.15;3.03;;;;;;;;;;5054649;28;20039;-76
2022/06/14 06:00:19;;;;;;;4.97;3.22;;;;;;;;;;5052369;28;20048;-76
2022/06/14 06:02:51;;;;;;;3.03;2.50;;;;;;;;;;5056593;28;20049;-76
2022/06/14 06:05:20;;;;;;;3.42;2.67;;;;;;;;;;5039661;28;20399;-76
2022/06/14 06:07:53;;;;;;;4.50;2.70;;;;;;;;;;5060494;28;20052;-76
2022/06/14 06:10:24;;;;;;;4.25;2.50;;;;;;;;;;5077853;28;20048;-76
2022/06/14 06:12:53;;;;;;;4.35;2.63;;;;;;;;;;5077980;28;20045;-76
2022/06/14 06:15:23;;;;;;;4.18;2.50;;;;;;;;;;5058940;28;20033;-74
2022/06/14 06:17:52;;;;;;;6.10;2.53;;;;;;;;;;5075855;28;20044;-74
2022/06/14 06:20:26;;;;;;;3.95;2.47;;;;;;;;;;5077792;28;20097;-74
2022/06/14 06:22:58;;;;;;;5.30;2.70;;;;;;;;;;5078041;28;20113;-74
2022/06/14 06:25:29;;;;;;;3.65;2.92;;;;;;;;;;5062285;28;20128;-74
2022/06/14 06:28:18;;;;;;;3.40;2.22;;;;;;;;;;5052491;28;20041;-74
2022/06/14 06:30:50;;;;;;;4.07;2.70;;;;;;;;;;5056068;28;20060;-74
2022/06/14 06:33:18;;;;;;;5.55;2.72;;;;;;;;;;5069243;28;20056;-74
2022/06/14 06:35:56;;;;;;;3.30;2.70;;;;;;;;;;5070738;28;20119;-74
2022/06/14 06:38:22;;;;;;;6.35;3.20;;;;;;;;;;5056456;28;20053;-74
2022/06/14 06:43:40;;;;;;;5.60;2.60;;;;;;;;;;5024834;28;20123;-75
2022/06/14 06:46:09;;;;;;;5.50;3.00;;;;;;;;;;5065629;28;20036;-74
2022/06/14 06:48:45;;;;;;;3.80;2.75;;;;;;;;;;5063046;28;20455;-74
2022/06/14 06:51:15;;;;;;;4.88;2.80;;;;;;;;;;5077040;28;20036;-74
2022/06/14 06:53:48;;;;;;;3.42;2.58;;;;;;;;;;5064301;28;20473;-74
2022/06/14 06:56:17;;;;;;;4.00;2.78;;;;;;;;;;5056996;28;20518;-74
2022/06/14 06:59:00;;;;;;;5.47;2.60;;;;;;;;;;5055780;28;20931;-75
2022/06/14 07:01:28;;;;;;;6.85;2.85;;;;;;;;;;5056801;28;20094;-73
2022/06/14 07:04:06;;;;;;;6.05;3.00;;;;;;;;;;5056817;28;20065;-73
2022/06/14 07:06:40;;;;;;;4.05;2.63;;;;;;;;;;5065366;28;20581;-73
2022/06/14 07:09:19;;;;;;;17.05;3.72;;;;;;;;;;5063358;28;20063;-73
2022/06/14 07:11:50;;;;;;;6.15;2.85;;;;;;;;;;5073599;28;20094;-73
2022/06/14 07:14:19;;;;;;;3.78;2.85;;;;;;;;;;5070823;28;20127;-72
2022/06/14 07:16:53;;;;;;;4.82;2.78;;;;;;;;;;5063941;28;20045;-74
2022/06/14 07:19:38;;;;;;;4.53;3.05;;;;;;;;;;5055984;28;20102;-74
2022/06/14 07:22:21;;;;;;;4.60;2.78;;;40.40;1.00;;;;;;5063858;28;20063;-73
2022/06/14 07:25:03;;;;;;;4.75;2.50;;;40.60;1.00;;;;;;5065830;28;20037;-73
2022/06/14 07:27:47;;;;;;;5.57;2.50;;;39.20;1.00;;;;;;5065645;28;20040;-73
2022/06/14 07:30:25;;;;;;;5.10;2.65;;;38.80;1.00;;;;;;5067047;28;20490;-73
2022/06/14 07:32:55;;;;;;;5.05;2.80;;;39.80;1.00;;;;;;5064971;28;20040;-73
2022/06/14 07:35:45;;;;;;;5.57;2.60;;;41.00;12.00;;;;;;5063431;28;20048;-73
2022/06/14 07:38:15;;;;;;;6.90;2.65;;;;;;;;;;5058197;28;20060;-74
2022/06/14 07:41:10;;;;;;;5.05;2.88;;;41.50;1.00;;;;;;5075952;28;20040;-74
2022/06/14 07:43:56;;;;;;;4.35;3.00;;;41.80;1.00;;;;;;5053255;28;20091;-73
2022/06/14 07:46:43;;;;;;;5.68;2.80;;;;;;;;;;5070947;28;20063;-73
2022/06/14 07:49:15;;;;;;;4.53;2.50;;;;;;;;;;5065409;28;20122;-74
2022/06/14 07:51:57;;;;;;;2.80;2.53;;;40.90;1.00;;;;;;5069328;28;20058;-73
2022/06/14 07:54:46;;;;;;;2.80;2.50;;;;;;;;;;5075558;28;20032;-72
2022/06/14 07:57:18;;;;;;;4.85;2.53;;;;;;;;;;5075540;28;20040;-72
2022/06/14 07:59:48;;;;;;;4.47;2.40;;;;;;;;;;5073797;28;20049;-72
2022/06/14 08:02:32;;;;;;;4.38;2.33;;;;;;;;;;5056287;28;20582;-72
2022/06/14 08:05:06;;;;;;;4.25;2.40;;;;;;;;;;5055626;28;20065;-72
2022/06/14 08:07:34;;;;;;;4.13;2.25;;;;;;;;;;5056895;28;20045;-73
2022/06/14 08:10:01;;;;;;;4.95;2.60;;;;;;;;;;5039839;28;20399;-73
2022/06/14 08:12:35;;;;;;;3.30;2.58;;;;;;;;;;5058778;28;20041;-73
2022/06/14 08:15:08;;;;;;;4.15;2.35;;;;;;;;;;5067359;28;20045;-73
2022/06/14 08:17:37;;;;;;;4.38;2.55;;;;;;;;;;5061650;28;20049;-73
2022/06/14 08:20:21;;;;;;;3.38;2.25;;;;;;;;;;5055299;28;20063;-73
2022/06/14 08:22:50;;;;;;;4.03;2.33;;;;;;;;;;5075503;28;20071;-73
2022/06/14 08:25:18;;;;;;;7.72;2.10;;;;;;;;;;5057779;28;20051;-73
2022/06/14 08:27:50;;;;;;;4.22;2.38;;;;;;;;;;5054927;28;20067;-73
2022/06/14 08:30:23;;;;;;;3.38;2.22;;;;;;;;;;5069126;28;20113;-74
2022/06/14 08:32:54;;;;;;;4.40;2.15;;;;;;;;;;5064568;28;20040;-74
2022/06/14 08:35:27;;;;;;;5.55;2.42;;;;;;;;;;5073108;28;20048;-73
2022/06/14 08:38:00;;;;;;;3.63;2.20;;;;;;;;;;5070538;28;20500;-74
2022/06/14 08:40:37;;;;;;;3.50;2.25;;;;;;;;;;5059916;28;20041;-74
2022/06/14 08:43:10;;;;;;;4.30;2.15;;;;;;;;;;5068876;28;20064;-73
2022/06/14 08:45:39;;;;;;;5.80;2.35;;;;;;;;;;5071856;28;20036;-74
2022/06/14 08:48:05;;;;;;;5.03;2.40;;;;;;;;;;5070729;28;20054;-74
2022/06/14 08:50:50;;;;;;;6.75;2.30;;;;;;;;;;5068571;28;20041;-74
2022/06/14 08:53:34;;;;;;;5.30;2.35;;;;;;;;;;5055288;28;20417;-73
2022/06/14 08:56:15;;;;;;;3.92;2.25;;;;;;;;;;5056435;28;20045;-73
2022/06/14 08:58:50;;;;;;;3.47;2.22;;;;;;;;;;5062319;28;20037;-73
2022/06/14 09:01:26;;;;;;;4.40;2.05;;;;;;;;;;5054449;28;20422;-73
2022/06/14 09:04:14;;;;;;;6.63;2.45;;;;;;;;;;5053989;28;20057;-73
2022/06/14 09:06:59;;;;;;;4.32;2.30;;;;;;;;;;5015701;28;20098;-74
2022/06/14 09:09:37;;;;;;;5.93;2.70;;;;;;;;;;5069355;28;20038;-73
2022/06/14 09:12:23;;;;;;;3.63;2.20;;;;;;;;;;5057911;28;20131;-73
2022/06/14 09:14:52;;;;;;;4.35;2.33;;;;;;;;;;5062381;28;20048;-73
2022/06/14 09:17:18;;;;;;;6.95;2.45;;;;;;;;;;5054265;28;20048;-73
2022/06/14 09:20:00;;;;;;;5.18;2.60;;;;;;;;;;5054910;28;20071;-73
2022/06/14 09:22:45;;;;;;;5.63;2.45;;;;;;;;;;5062903;28;20652;-74
2022/06/14 09:25:29;;;;;;;6.80;2.20;;;;;;;;;;5063759;28;20093;-74
2022/06/14 09:27:58;;;;;;;4.53;2.60;;;;;;;;;;5064454;28;20055;-74
2022/06/14 09:30:43;;;;;;;4.38;2.38;;;;;;;;;;5057750;28;20036;-74
2022/06/14 09:33:35;;;;;;;2.15;1.95;;;;;;;;;;5072099;28;20067;-74
2022/06/14 09:36:04;;;;;;;3.92;2.35;;;;;;;;;;5032711;28;20124;-74
2022/06/14 09:38:48;;;;;;;3.75;2.60;;;;;;;;;;5059913;28;20029;-74
2022/06/14 09:41:15;;;;;;;4.97;2.70;;;;;;;;;;5058108;28;20045;-74
2022/06/14 09:43:47;;;;;;;4.53;2.40;;;;;;;;;;5072988;28;20124;-74
2022/06/14 09:46:28;;;;;;;5.65;2.33;;;;;;;;;;5060885;28;20098;-73
2022/06/14 09:49:13;;;;;;;5.97;2.20;;;;;;;;;;5054795;28;20558;-74
2022/06/14 09:51:39;;;;;;;7.05;3.03;;;;;;;;;;5061902;28;20526;-74
2022/06/14 09:54:24;;;;;;;9.98;2.90;;;;;;;;;;5065986;28;20558;-74
2022/06/14 09:57:03;;;;;;;3.67;2.42;;;;;;;;;;5061107;28;20051;-74
2022/06/14 09:59:39;;;;;;;5.75;2.63;;;;;;;;;;5625712;22;21141;-71
2022/06/14 10:02:12;;;;;;;11.38;2.40;;;;;;;;;;5056076;28;20044;-71
2022/06/14 10:04:50;;;;;;;7.68;3.05;;;;;;;;;;5066736;28;20151;-71
2022/06/14 10:07:23;;;;;;;17.02;3.80;;;;;;;;;;5066087;28;20116;-71
2022/06/14 10:10:08;;;;;;;5.10;2.35;;;;;;;;;;5066970;28;20032;-71
2022/06/14 10:13:12;;;;;;;6.32;2.63;;;;;;;;;;5068564;28;20037;-69
2022/06/14 10:15:45;;;;;;;6.47;2.75;;;;;;;;;;4983236;28;20034;-69
2022/06/14 10:18:18;;;;;;;7.75;2.33;;;;;;;;;;4976178;28;20042;-69
2022/06/14 10:20:49;;;;;;;5.88;2.80;;;;;;;;;;5035075;28;20032;-69
2022/06/14 10:23:15;;;;;;;6.30;2.78;;;;;;;;;;5062026;28;20136;-69
2022/06/14 10:28:41;;;;;;;4.75;2.50;;;;;;;;;;5067354;28;20039;-69
2022/06/14 10:31:14;;;;;;;6.15;2.60;;;;;;;;;;5053120;28;20045;-69
2022/06/14 10:33:47;;;;;;;2.92;2.40;;;;;;;;;;5061094;28;20056;-69
2022/06/14 10:36:21;;;;;;;4.45;2.55;;;;;;;;;;5073664;28;20111;-69
2022/06/14 10:38:53;;;;;;;3.72;2.83;;;;;;;;;;5064655;28;20041;-69
2022/06/14 10:41:36;;;;;;;4.07;2.50;;;;;;;;;;5066597;28;20087;-68
2022/06/14 10:44:13;;;;;;;5.63;3.50;;;;;;;;;;5061338;28;20139;-69
2022/06/14 10:46:58;;;;;;;4.82;2.67;;;;;;;;;;5071501;28;20103;-69
2022/06/14 10:49:37;;;;;;;5.30;2.22;;;;;;;;;;5069101;28;20037;-68
2022/06/14 10:52:11;;;;;;;5.50;2.83;;;;;;;;;;5069791;28;20603;-68
2022/06/14 10:54:52;;;;;;;11.02;6.50;;;;;;;;;;5067498;28;20044;-68
2022/06/14 10:57:37;;;;;;;5.85;3.70;;;;;;;;;;5062967;28;20068;-69
2022/06/14 11:00:22;;;;;;;5.93;2.92;;;;;;;;;;5058270;28;20134;-72
2022/06/14 11:02:54;;;;;;;8.80;2.67;;;;;;;;;;5057779;28;20075;-72
2022/06/14 11:05:26;;;;;;;42.03;23.58;;;;;;;;;;5061749;28;20044;-69
2022/06/14 11:08:08;;;;;;;7.15;3.15;;;;;;;;;;5073881;28;20127;-69
2022/06/14 11:10:42;;;;;;;4.78;2.97;;;;;;;;;;5071129;28;20044;-70
2022/06/14 11:13:17;;;;;;;7.68;3.30;;;;;;;;;;5061012;28;20053;-69
2022/06/14 11:15:51;;;;;;;5.53;2.80;;;;;;;;;;5069160;28;20082;-69
2022/06/14 11:18:29;;;;;;;5.70;3.53;;;;;;;;;;5062389;28;20045;-69
2022/06/14 11:20:55;;;;;;;8.30;3.08;;;;;;;;;;5070840;28;20032;-69
2022/06/14 11:23:27;;;;;;;4.47;2.70;;;;;;;;;;5072337;28;20123;-69
2022/06/14 11:26:06;;;;;;;3.92;2.60;;;;;;;;;;5065235;28;20082;-69
2022/06/14 11:28:41;;;;;;;3.85;2.97;;;;;;;;;;5071323;28;20051;-70
2022/06/14 11:31:17;;;;;;;16.63;9.98;;;;;;;;;;5056002;28;20041;-70
2022/06/14 11:33:45;;;;;;;164.15;119.05;;;;;;;;;;5071649;28;20429;-70
2022/06/14 11:36:26;;;;;;;10.38;8.02;;;;;;;;;;5056476;28;20630;-70
2022/06/14 11:38:57;;;;;;;20.58;15.55;;;;;;;;;;5067676;28;20083;-70
2022/06/14 11:41:25;;;;;;;49.17;37.70;;;;;;;;;;5065093;28;20103;-70
2022/06/14 11:43:51;;;;;;;71.78;55.45;;;;;;;;;;5052506;28;20122;-69
2022/06/14 11:46:26;;;;;;;12.55;10.93;;;;;;;;;;5058981;28;20036;-70
2022/06/14 11:49:06;;;;;;;6.40;3.50;;;;;;;;;;5056315;28;20040;-69
2022/06/14 11:51:44;;;;;;;5.95;3.10;;;;;;;;;;5055515;28;20055;-70
2022/06/14 11:54:10;;;;;;;7.53;4.18;;;;;;;;;;5055345;28;20044;-70
2022/06/14 11:56:55;;;;;;;6.45;2.97;;;;;;;;;;5054656;28;20616;-70
2022/06/14 11:59:30;;;;;;;4.45;3.22;;;;;;;;;;5062002;28;20039;-69
2022/06/14 12:02:12;;;;;;;6.85;3.10;;;;;;;;;;5071741;28;20048;-70
2022/06/14 12:04:57;;;;;;;5.18;2.60;;;;;;;;;;5074580;28;20036;-70
2022/06/14 12:07:33;;;;;;;8.13;5.72;;;;;;;;;;5073301;28;20068;-70
2022/06/14 12:10:02;;;;;;;8.15;4.90;;;;;;;;;;5059707;28;20052;-69
2022/06/14 12:12:35;;;;;;;7.82;4.53;;;;;;;;;;5060154;28;20043;-69
2022/06/14 12:15:07;;;;;;;10.18;3.47;;;;;;;;;;5068258;28;20043;-70
2022/06/14 12:17:42;;;;;;;5.63;2.83;;;;;;;;;;5054026;28;20072;-69
2022/06/14 12:20:08;;;;;;;4.95;2.80;;;;;;;;;;5054833;28;20045;-70
2022/06/14 12:22:37;;;;;;;7.50;5.43;;;;;;;;;;5054611;28;20055;-69
2022/06/14 12:28:04;;;;;;;5.72;2.63;;;;;;;;;;5071279;28;20071;-70
2022/06/14 12:30:32;;;;;;;7.55;3.00;;;;;;;;;;5073150;28;20048;-70
2022/06/14 12:33:02;;;;;;;5.35;3.08;;;;;;;;;;5070474;28;20051;-70
2022/06/14 12:35:34;;;;;;;5.50;2.70;;;;;;;;;;5070031;28;20089;-70
2022/06/14 12:38:04;;;;;;;7.22;2.88;;;;;;;;;;5067624;28;20048;-70
2022/06/14 12:40:42;;;;;;;5.25;2.50;;;;;;;;;;5054114;28;20124;-69
2022/06/14 12:43:18;;;;;;;7.97;2.80;;;;;;;;;;5054276;28;20045;-69
2022/06/14 12:45:44;;;;;;;5.82;2.83;;;;;;;;;;5054175;28;20127;-69
2022/06/14 12:48:19;;;;;;;5.65;2.80;;;;;;;;;;5073614;28;20081;-70
2022/06/14 12:50:48;;;;;;;4.32;2.47;;;;;;;;;;5062833;28;20161;-69
2022/06/14 12:53:14;;;;;;;5.30;2.58;;;;;;;;;;5074298;28;20131;-69
2022/06/14 12:55:46;;;;;;;3.28;2.60;;;;;;;;;;5066398;28;20499;-69
2022/06/14 12:58:31;;;;;;;5.07;3.22;;;;;;;;;;5054857;28;20040;-69
2022/06/14 13:01:08;;;;;;;3.95;2.55;;;;;;;;;;5054330;28;20105;-70
2022/06/14 13:03:34;;;;;;;2.28;2.08;;;;;;;;;;5054342;28;20049;-71
2022/06/14 13:06:19;;;;;;;3.75;2.33;;;;;;;;;;5060907;28;20043;-70
2022/06/14 13:08:55;;;;;;;3.67;2.45;;;;;;;;;;5073489;28;20114;-70
2022/06/14 13:11:26;;;;;;;3.17;2.15;;;;;;;;;;5061575;28;20598;-70
2022/06/14 13:14:01;;;;;;;8.65;2.22;;;;;;;;;;5061933;28;20483;-69
2022/06/14 13:16:27;;;;;;;6.25;2.75;;;;;;;;;;5071217;28;20048;-70
2022/06/14 13:18:59;;;;;;;7.40;2.80;;;;;;;;;;5068728;28;20067;-71
2022/06/14 13:21:44;;;;;;;7.57;2.80;;;;;;;;;;5068436;28;20571;-70
2022/06/14 13:24:13;;;;;;;6.07;2.40;;;;;;;;;;5053827;28;20044;-70
2022/06/14 13:26:43;;;;;;;3.97;2.47;;;;;;;;;;5060346;28;20037;-70
2022/06/14 13:29:15;;;;;;;6.85;2.60;;;;;;;;;;5060665;28;20045;-70
2022/06/14 13:32:07;;;;;;;6.15;2.33;;;;;;;;;;5065030;28;20040;-70
2022/06/14 13:34:33;;;;;;;4.13;2.50;;;;;;;;;;5044243;28;20051;-70
2022/06/14 13:37:19;;;;;;;6.75;2.88;;;;;;;;;;5054027;28;20043;-70
2022/06/14 13:40:25;;;;;;;4.95;2.60;;;;;;;;;;5071035;28;20036;-70
2022/06/14 13:42:57;;;;;;;4.20;2.28;;;;;;;;;;4985099;28;20085;-70
2022/06/14 13:45:52;;;;;;;3.35;2.08;;;;;;;;;;4987500;28;20053;-70
2022/06/14 13:48:32;;;;;;;7.68;2.30;;;;;;;;;;5040741;28;20041;-70
2022/06/14 13:51:17;;;;;;;4.10;2.40;;;;;;;;;;5065789;28;20085;-70
2022/06/14 13:54:01;;;;;;;2.33;1.95;;;;;;;;;;5053979;28;20494;-70
2022/06/14 13:56:50;;;;;;;4.80;2.05;;;;;;;;;;5064504;28;20086;-70
2022/06/14 13:59:25;;;;;;;7.10;2.80;;;;;;;;;;5058168;28;20052;-70
2022/06/14 14:01:54;;;;;;;3.53;2.22;;;;;;;;;;5066056;28;20071;-70
2022/06/14 14:04:23;;;;;;;9.35;2.05;;;;;;;;;;5054351;28;20037;-70
2022/06/14 14:06:53;;;;;;;13.98;2.65;;;;;;;;;;5061397;28;20068;-70
2022/06/14 14:09:25;;;;;;;8.63;2.10;;;;;;;;;;5064235;28;20053;-70
2022/06/14 14:11:55;;;;;;;4.65;2.50;;;;;;;;;;5053561;28;20075;-70
2022/06/14 14:14:27;;;;;;;3.85;2.40;;;;;;;;;;5071460;28;20045;-70
2022/06/14 14:17:05;;;;;;;4.38;2.40;;;;;;;;;;5074016;28;20132;-70
2022/06/14 14:19:35;;;;;;;4.47;2.10;;;;;;;;;;5071858;28;20513;-70
2022/06/14 14:22:30;;;;;;;5.97;2.42;;;;;;;;;;5064096;28;20062;-70
2022/06/14 14:25:02;;;;;;;3.63;2.20;;;;;;;;;;5059092;28;20032;-71
2022/06/14 14:27:41;;;;;;;3.78;2.42;;;;;;;;;;5058885;28;20044;-71
2022/06/14 14:30:12;;;;;;;4.30;2.20;;;;;;;;;;5057428;28;20041;-70
2022/06/14 14:32:42;;;;;;;5.00;2.50;;;;;;;;;;5058476;28;20075;-70
2022/06/14 14:35:14;;;;;;;4.10;1.85;;;;;;;;;;5057921;28;20110;-70
2022/06/14 14:37:43;;;;;;;4.55;2.40;;;;;;;;;;5065096;28;20086;-70
2022/06/14 14:40:09;;;;;;;5.90;2.40;;;;;;;;;;5068916;28;20514;-70
2022/06/14 14:42:50;;;;;;;3.88;2.35;;;;;;;;;;5068271;28;20052;-70
2022/06/14 14:45:28;;;;;;;3.83;2.13;;;;;;;;;;5061233;28;20045;-70
2022/06/14 14:48:09;;;;;;;5.05;2.17;;;;;;;;;;5058574;28;20076;-70
2022/06/14 14:50:35;;;;;;;3.60;2.17;;;;;;;;;;5072387;28;20040;-70
2022/06/14 14:53:14;;;;;;;6.03;2.65;;;;;;;;;;5077447;28;20251;-70
2022/06/14 14:55:40;;;;;;;6.65;2.45;;;;;;;;;;5071076;28;20062;-70
2022/06/14 14:58:16;;;;;;;4.05;2.65;;;;;;;;;;5061053;28;20045;-70
2022/06/14 15:06:25;;;;;;;5.88;2.78;;;;;;;;;;5062424;28;20082;-69
2022/06/14 15:08:55;;;;;;;8.30;2.33;;;;;;;;;;5062356;28;20068;-69
2022/06/14 15:11:23;;;;;;;8.38;2.58;;;;;;;;;;5062421;28;20564;-71
2022/06/14 15:13:59;;;;;;;7.85;2.78;;;;;;;;;;5063538;28;20029;-70
2022/06/14 15:16:27;;;;;;;8.93;2.72;;;;;;;;;;5067922;28;20064;-70
2022/06/14 15:21:59;;;;;;;7.70;2.72;;;;;;;;;;5067607;28;20048;-69
2022/06/14 15:24:27;;;;;;;11.38;2.92;;;;;;;;;;5064719;28;20105;-69
2022/06/14 15:27:06;;;;;;;4.32;2.20;;;;;;;;;;5072020;28;20041;-70
2022/06/14 15:29:35;;;;;;;4.47;2.40;;;;;;;;;;5057930;28;20043;-70
2022/06/14 15:32:02;;;;;;;4.32;2.55;;;;;;;;;;5065026;28;20507;-69
2022/06/14 15:34:33;;;;;;;5.68;2.30;;;;;;;;;;5060450;28;20039;-69
2022/06/14 15:37:05;;;;;;;5.25;3.10;;;;;;;;;;5072015;28;20395;-69
2022/06/14 15:39:33;;;;;;;7.93;2.75;;;;;;;;;;5066540;28;20045;-69